Time;durP1;ratioP1;P1;durP2;ratioP2;P2;SDS_P1;SDS_P2;PMS_P1;PMS_P2;Temp;Humidity;BMP_temperature;BMP_pressure;BME280_temperature;BME280_humidity;BME280_pressure;Samples;Min_cycle;Max_cycle;Signal;HPM_P1;HPM_P2
2021/08/13 00:01:24;;;;;;;6.20;5.38;;;18.80;94.50;;;;;;5032029;28;20022;-61
2021/08/13 00:03:50;;;;;;;9.07;6.75;;;18.80;94.60;;;;;;5031739;28;20489;-60
2021/08/13 00:06:16;;;;;;;7.53;5.70;;;18.80;94.60;;;;;;5030907;28;20095;-61
2021/08/13 00:08:41;;;;;;;8.35;5.55;;;18.80;94.70;;;;;;5031970;28;20474;-61
2021/08/13 00:11:07;;;;;;;6.05;5.38;;;18.80;94.70;;;;;;5031825;28;20032;-61
2021/08/13 00:13:32;;;;;;;6.80;5.68;;;18.70;94.80;;;;;;5031927;28;20024;-60
2021/08/13 00:15:58;;;;;;;7.78;5.63;;;18.70;94.80;;;;;;5031544;28;20397;-61
2021/08/13 00:18:23;;;;;;;5.80;5.13;;;18.60;94.90;;;;;;5030404;28;20068;-61
2021/08/13 00:20:49;;;;;;;7.28;4.68;;;18.60;94.90;;;;;;5031795;28;20056;-62
2021/08/13 00:23:14;;;;;;;3.53;2.90;;;18.60;95.00;;;;;;5031827;28;20094;-61
2021/08/13 00:25:40;;;;;;;3.95;3.55;;;18.60;95.00;;;;;;5031580;28;20389;-61
2021/08/13 00:28:05;;;;;;;4.35;3.65;;;18.50;95.10;;;;;;5032155;28;20021;-60
2021/08/13 00:30:31;;;;;;;2.97;2.50;;;18.50;95.10;;;;;;5031565;28;20029;-61
2021/08/13 00:32:56;;;;;;;3.53;2.80;;;18.50;95.20;;;;;;5031298;28;20017;-61
2021/08/13 00:35:22;;;;;;;5.07;4.13;;;18.50;95.20;;;;;;5031603;28;20025;-61
2021/08/13 00:37:47;;;;;;;8.63;6.15;;;18.50;95.20;;;;;;5031665;28;20076;-61
2021/08/13 00:40:14;;;;;;;8.63;7.20;;;18.50;95.30;;;;;;5031374;28;20508;-61
2021/08/13 00:42:40;;;;;;;10.38;8.23;;;18.50;95.30;;;;;;5030301;28;20030;-61
2021/08/13 00:45:06;;;;;;;8.57;7.30;;;18.50;95.40;;;;;;5031099;28;20532;-61
2021/08/13 00:47:32;;;;;;;7.50;6.72;;;18.50;95.50;;;;;;5029526;28;20032;-61
2021/08/13 00:49:58;;;;;;;6.60;5.90;;;18.50;95.60;;;;;;5029552;28;20026;-61
2021/08/13 00:52:24;;;;;;;8.60;5.75;;;18.50;95.70;;;;;;5030804;28;20029;-61
2021/08/13 00:54:50;;;;;;;8.75;6.95;;;18.40;95.80;;;;;;5031434;28;20018;-61
2021/08/13 00:57:15;;;;;;;7.60;6.80;;;18.40;95.80;;;;;;5031775;28;20385;-61
2021/08/13 00:59:41;;;;;;;7.90;6.40;;;18.40;95.90;;;;;;5031893;28;20099;-61
2021/08/13 01:02:08;;;;;;;6.50;5.85;;;18.40;96.00;;;;;;5031170;28;20064;-61
2021/08/13 01:04:33;;;;;;;8.93;7.28;;;18.40;96.00;;;;;;5031216;28;20454;-61
2021/08/13 01:07:00;;;;;;;9.23;6.85;;;18.40;96.10;;;;;;5031195;28;20108;-62
2021/08/13 01:09:26;;;;;;;8.60;7.43;;;18.40;96.10;;;;;;5031693;28;20018;-61
2021/08/13 01:12:01;;;;;;;7.82;7.03;;;18.40;96.10;;;;;;5031375;28;20037;-61
2021/08/13 01:14:51;;;;;;;7.47;6.53;;;18.50;96.20;;;;;;5031213;28;20013;-61
2021/08/13 01:17:20;;;;;;;;;;;18.40;96.20;;;;;;5032310;28;20493;-61
2021/08/13 01:19:48;;;;;;;5.63;5.05;;;18.40;96.20;;;;;;5030747;28;20353;-61
2021/08/13 01:22:19;;;;;;;7.38;5.25;;;18.30;96.40;;;;;;5034919;28;20033;-61
2021/08/13 01:24:47;;;;;;;6.60;5.78;;;18.20;96.50;;;;;;5034722;28;20034;-61
2021/08/13 01:27:20;;;;;;;6.82;5.68;;;18.30;96.50;;;;;;5034665;28;20029;-61
2021/08/13 01:30:03;;;;;;;6.68;5.45;;;18.30;96.60;;;;;;5032562;28;20018;-61
2021/08/13 01:32:48;;;;;;;8.82;6.18;;;18.30;96.60;;;;;;5032957;28;20022;-61
2021/08/13 01:35:27;;;;;;;7.43;6.30;;;18.20;96.70;;;;;;5034460;28;20112;-61
2021/08/13 01:37:54;;;;;;;;;;;18.20;96.70;;;;;;5035206;28;20083;-61
2021/08/13 01:40:22;;;;;;;7.28;5.13;;;18.10;96.70;;;;;;5034462;28;20445;-61
2021/08/13 01:42:48;;;;;;;4.85;4.15;;;18.10;97.00;;;;;;5034541;28;20033;-61
2021/08/13 01:45:20;;;;;;;5.93;5.32;;;18.10;97.00;;;;;;5034179;28;20366;-61
2021/08/13 01:47:48;;;;;;;7.32;5.45;;;18.00;97.10;;;;;;5032110;28;20049;-61
2021/08/13 01:50:14;;;;;;;5.85;5.25;;;17.90;97.30;;;;;;5034114;28;20029;-61
2021/08/13 01:52:41;;;;;;;9.88;7.88;;;17.80;97.40;;;;;;5025315;28;20024;-61
2021/08/13 01:55:07;;;;;;;10.18;7.40;;;17.80;97.60;;;;;;5034201;28;20013;-61
2021/08/13 01:57:33;;;;;;;9.23;7.15;;;17.80;97.80;;;;;;5034148;28;20588;-61
2021/08/13 01:59:59;;;;;;;8.18;7.25;;;17.80;97.90;;;;;;5033950;28;20090;-61
2021/08/13 02:02:25;;;;;;;6.88;6.15;;;17.90;97.90;;;;;;5034251;28;20021;-61
2021/08/13 02:04:52;;;;;;;7.55;6.30;;;17.90;97.90;;;;;;5034009;28;20473;-61
2021/08/13 02:07:18;;;;;;;8.80;5.95;;;17.90;97.90;;;;;;5033689;28;20489;-61
2021/08/13 02:09:45;;;;;;;6.55;5.75;;;17.90;97.90;;;;;;5034049;28;20425;-61
2021/08/13 02:12:10;;;;;;;5.75;5.18;;;17.90;97.90;;;;;;5033954;28;20025;-60
2021/08/13 02:14:38;;;;;;;7.15;6.05;;;17.90;97.90;;;;;;5033785;28;20080;-61
2021/08/13 02:17:07;;;;;;;8.82;6.18;;;17.90;97.90;;;;;;5029876;28;20021;-61
2021/08/13 02:19:37;;;;;;;7.05;6.03;;;17.90;98.00;;;;;;5032332;28;20049;-61
2021/08/13 02:22:03;;;;;;;7.25;6.55;;;17.90;98.00;;;;;;5033773;28;20029;-61
2021/08/13 02:24:52;;;;;;;8.75;7.40;;;17.80;98.00;;;;;;5033746;28;20047;-60
2021/08/13 02:27:18;;;;;;;9.30;6.63;;;17.80;98.00;;;;;;5033484;28;20033;-61
2021/08/13 02:29:43;;;;;;;8.05;6.93;;;17.80;98.00;;;;;;5033011;28;20109;-61
2021/08/13 02:32:09;;;;;;;8.70;6.38;;;17.80;98.10;;;;;;5033572;28;20022;-61
2021/08/13 02:34:35;;;;;;;5.63;4.95;;;17.80;98.10;;;;;;5033558;28;20018;-61
2021/08/13 02:37:17;;;;;;;4.53;3.88;;;17.80;98.10;;;;;;5033058;28;20386;-61
2021/08/13 02:40:10;;;;;;;4.20;3.33;;;17.80;98.10;;;;;;5030802;28;20064;-61
2021/08/13 02:42:44;;;;;;;4.25;3.25;;;17.70;98.10;;;;;;5033174;28;20512;-60
2021/08/13 02:45:13;;;;;;;5.53;3.90;;;17.70;98.20;;;;;;5031279;28;20024;-61
2021/08/13 02:47:40;;;;;;;3.00;2.60;;;17.60;98.20;;;;;;5033218;28;20437;-61
2021/08/13 02:50:08;;;;;;;3.03;2.72;;;17.70;98.30;;;;;;5033169;28;20048;-61
2021/08/13 02:52:50;;;;;;;3.37;2.87;;;17.60;98.30;;;;;;5033060;28;20022;-61
2021/08/13 02:55:20;;;;;;;4.93;3.65;;;17.70;98.30;;;;;;5033347;28;20033;-61
2021/08/13 02:57:52;;;;;;;6.18;5.55;;;17.60;98.30;;;;;;5030893;28;20021;-61
2021/08/13 03:00:19;;;;;;;8.15;7.05;;;17.60;98.20;;;;;;5032962;28;20036;-61
2021/08/13 03:02:47;;;;;;;9.23;8.25;;;17.70;98.20;;;;;;5031761;28;20014;-61
2021/08/13 03:05:14;;;;;;;10.75;9.02;;;17.70;98.20;;;;;;5031457;28;20022;-61
2021/08/13 03:07:40;;;;;;;11.50;10.38;;;17.60;98.20;;;;;;5032557;28;20024;-61
2021/08/13 03:10:08;;;;;;;10.55;9.38;;;17.70;98.30;;;;;;5032820;28;20025;-60
2021/08/13 03:12:37;;;;;;;10.75;9.60;;;17.60;98.20;;;;;;5032773;28;20089;-60
2021/08/13 03:15:03;;;;;;;10.38;9.30;;;17.60;98.30;;;;;;5032610;28;20057;-61
2021/08/13 03:17:29;;;;;;;7.72;6.90;;;17.60;98.30;;;;;;5032657;28;20477;-61
2021/08/13 03:19:55;;;;;;;7.43;6.70;;;17.50;98.30;;;;;;5036140;28;20370;-61
2021/08/13 03:22:21;;;;;;;9.10;7.72;;;17.50;98.40;;;;;;5031171;28;20020;-61
2021/08/13 03:24:48;;;;;;;8.40;6.97;;;17.50;98.30;;;;;;5032562;28;20014;-61
2021/08/13 03:27:16;;;;;;;9.50;7.95;;;17.50;98.30;;;;;;5032406;28;20041;-61
2021/08/13 03:29:41;;;;;;;9.05;7.05;;;17.40;98.40;;;;;;5030942;28;20023;-61
2021/08/13 03:32:07;;;;;;;8.63;7.15;;;17.40;98.40;;;;;;5032490;28;20021;-61
2021/08/13 03:34:33;;;;;;;7.68;6.70;;;17.40;98.40;;;;;;5032384;28;20358;-61
2021/08/13 03:36:58;;;;;;;8.15;6.72;;;17.40;98.50;;;;;;5031945;28;20548;-61
2021/08/13 03:39:24;;;;;;;7.93;7.05;;;17.40;98.50;;;;;;5032508;28;20092;-61
2021/08/13 03:41:51;;;;;;;6.32;5.70;;;17.40;98.50;;;;;;5032596;28;20084;-61
2021/08/13 03:44:16;;;;;;;7.00;5.95;;;17.40;98.60;;;;;;5032185;28;20029;-62
2021/08/13 03:46:42;;;;;;;5.40;4.90;;;17.30;98.60;;;;;;5032130;28;20032;-61
2021/08/13 03:49:08;;;;;;;5.32;4.75;;;17.30;98.60;;;;;;5032030;28;20095;-60
2021/08/13 03:51:34;;;;;;;6.75;5.43;;;17.30;98.70;;;;;;5032057;28;20018;-61
2021/08/13 03:53:59;;;;;;;5.63;4.65;;;17.30;98.80;;;;;;5032020;28;20531;-61
2021/08/13 03:56:25;;;;;;;7.20;5.72;;;17.30;98.80;;;;;;5032139;28;20021;-61
2021/08/13 03:59:09;;;;;;;;;;;;;;;;;;;;;
2021/08/13 04:01:36;;;;;;;6.85;6.15;;;17.30;99.00;;;;;;5030927;28;20095;-61
2021/08/13 04:04:01;;;;;;;7.80;6.82;;;17.30;99.00;;;;;;5031815;28;20018;-61
2021/08/13 04:06:27;;;;;;;6.72;6.03;;;17.30;99.00;;;;;;5031804;28;20096;-61
2021/08/13 04:08:52;;;;;;;6.93;6.15;;;17.40;99.30;;;;;;5031838;28;20382;-61
2021/08/13 04:11:18;;;;;;;7.55;6.53;;;17.40;99.00;;;;;;5031569;28;20456;-61
2021/08/13 04:13:44;;;;;;;10.35;6.82;;;17.40;99.00;;;;;;5032086;28;20033;-61
2021/08/13 04:16:09;;;;;;;7.93;6.60;;;17.30;99.00;;;;;;5032058;28;20029;-61
2021/08/13 04:18:35;;;;;;;5.90;5.30;;;17.40;99.10;;;;;;5030564;28;20501;-61
2021/08/13 04:21:00;;;;;;;10.18;5.38;;;17.30;99.10;;;;;;5031623;28;20059;-61
2021/08/13 04:23:26;;;;;;;5.68;4.95;;;17.30;99.20;;;;;;5031726;28;20428;-60
2021/08/13 04:25:51;;;;;;;4.22;3.83;;;17.30;99.30;;;;;;5030357;28;20132;-61
2021/08/13 04:28:17;;;;;;;3.85;3.50;;;17.30;99.30;;;;;;5031667;28;20025;-61
2021/08/13 04:30:42;;;;;;;4.38;4.00;;;17.30;99.30;;;;;;5031658;28;20017;-61
2021/08/13 04:33:12;;;;;;;5.47;4.90;;;17.30;99.40;;;;;;5031643;28;20025;-61
2021/08/13 04:35:37;;;;;;;;;;;17.30;99.40;;;;;;5032051;28;20026;-61
2021/08/13 04:38:04;;;;;;;5.88;5.28;;;17.20;99.40;;;;;;5031693;28;19909;-61
2021/08/13 04:40:30;;;;;;;7.93;5.88;;;17.20;99.60;;;;;;5031279;28;20122;-61
2021/08/13 04:42:55;;;;;;;6.60;5.90;;;17.20;99.60;;;;;;5031863;28;20362;-60
2021/08/13 04:45:21;;;;;;;5.13;4.63;;;17.30;99.60;;;;;;5030931;28;20601;-61
2021/08/13 04:47:46;;;;;;;4.75;4.28;;;17.20;99.60;;;;;;5030733;28;20431;-60
2021/08/13 04:50:12;;;;;;;4.85;4.45;;;17.30;99.60;;;;;;5029564;28;20362;-60
2021/08/13 04:52:45;;;;;;;5.93;4.50;;;17.20;99.60;;;;;;5032632;28;20104;-61
2021/08/13 04:55:12;;;;;;;6.22;5.13;;;17.20;99.70;;;;;;5035287;28;20097;-61
2021/08/13 04:57:38;;;;;;;5.00;4.47;;;17.20;99.80;;;;;;5034061;28;20025;-61
2021/08/13 05:00:05;;;;;;;5.07;4.60;;;17.20;99.80;;;;;;5035279;28;20501;-61
2021/08/13 05:02:30;;;;;;;6.15;5.55;;;17.20;99.80;;;;;;5033097;28;20037;-60
2021/08/13 05:05:00;;;;;;;5.57;5.07;;;17.20;99.90;;;;;;5024680;28;20009;-61
2021/08/13 05:07:28;;;;;;;5.07;4.68;;;17.30;99.90;;;;;;5023066;28;20037;-60
2021/08/13 05:09:53;;;;;;;5.60;5.07;;;17.30;99.90;;;;;;5035851;28;20249;-60
2021/08/13 05:12:19;;;;;;;6.53;5.93;;;17.30;99.90;;;;;;5035806;28;20458;-61
2021/08/13 05:14:44;;;;;;;7.15;6.40;;;17.30;99.90;;;;;;5034669;28;20029;-61
2021/08/13 05:17:10;;;;;;;8.25;5.95;;;17.30;99.90;;;;;;5035780;28;20025;-60
2021/08/13 05:19:35;;;;;;;7.50;6.70;;;17.40;99.90;;;;;;5034477;28;20029;-60
2021/08/13 05:22:01;;;;;;;7.57;6.78;;;17.40;99.90;;;;;;5035489;28;20083;-60
2021/08/13 05:24:26;;;;;;;8.82;6.55;;;17.40;99.90;;;;;;5035662;28;20536;-60
2021/08/13 05:26:52;;;;;;;6.75;6.05;;;17.40;99.90;;;;;;5035622;28;20381;-61
2021/08/13 05:29:17;;;;;;;9.85;8.48;;;17.50;99.90;;;;;;5035483;28;20108;-61
2021/08/13 05:31:43;;;;;;;9.75;8.07;;;17.50;99.90;;;;;;5035607;28;20029;-60
2021/08/13 05:34:08;;;;;;;9.85;8.68;;;17.50;99.90;;;;;;5035436;28;20029;-61
2021/08/13 05:36:34;;;;;;;10.10;8.52;;;17.60;99.90;;;;;;5035320;28;20104;-61
2021/08/13 05:38:59;;;;;;;9.55;8.40;;;17.60;99.90;;;;;;5035241;28;20025;-61
2021/08/13 05:41:25;;;;;;;11.00;9.30;;;17.60;99.90;;;;;;5035217;28;20520;-61
2021/08/13 05:43:50;;;;;;;11.65;9.63;;;17.60;99.90;;;;;;5034100;28;20113;-61
2021/08/13 05:46:16;;;;;;;13.15;10.70;;;17.70;99.90;;;;;;5034787;28;20107;-60
2021/08/13 05:48:41;;;;;;;14.80;12.27;;;17.70;99.90;;;;;;5034574;28;20429;-60
2021/08/13 05:51:07;;;;;;;16.10;11.68;;;17.80;99.90;;;;;;5033376;28;20044;-61
2021/08/13 05:53:32;;;;;;;15.38;11.90;;;17.80;99.90;;;;;;5034952;28;20036;-61
2021/08/13 05:55:58;;;;;;;14.15;12.27;;;17.90;99.90;;;;;;5035050;28;20034;-60
2021/08/13 05:58:23;;;;;;;17.08;12.25;;;17.90;99.90;;;;;;5033758;28;20393;-61
2021/08/13 06:00:49;;;;;;;18.05;13.68;;;18.00;99.90;;;;;;5034813;28;20128;-60
2021/08/13 06:03:14;;;;;;;14.68;12.25;;;18.10;99.90;;;;;;5033118;28;20151;-60
2021/08/13 06:05:40;;;;;;;16.58;13.50;;;18.10;99.90;;;;;;5033765;28;20113;-60
2021/08/13 06:08:05;;;;;;;17.90;14.27;;;18.20;99.90;;;;;;5033010;28;20132;-60
2021/08/13 06:10:31;;;;;;;18.33;14.48;;;18.30;99.90;;;;;;5034103;28;20028;-61
2021/08/13 06:12:56;;;;;;;17.83;12.80;;;18.30;99.90;;;;;;5034562;28;20049;-61
2021/08/13 06:15:22;;;;;;;15.60;12.43;;;18.40;99.90;;;;;;5034655;28;20037;-61
2021/08/13 06:17:48;;;;;;;16.38;12.80;;;18.40;99.90;;;;;;5034745;28;20030;-60
2021/08/13 06:20:18;;;;;;;15.07;12.10;;;18.50;99.90;;;;;;5034490;28;20029;-61
2021/08/13 06:22:44;;;;;;;17.42;12.52;;;18.50;99.90;;;;;;5033316;28;20021;-60
2021/08/13 06:25:10;;;;;;;14.63;12.02;;;18.60;99.80;;;;;;5034204;28;20855;-60
2021/08/13 06:27:40;;;;;;;15.02;11.45;;;18.50;99.70;;;;;;5034634;28;20466;-60
2021/08/13 06:30:07;;;;;;;15.15;11.23;;;18.60;99.60;;;;;;5034579;28;20017;-61
2021/08/13 06:32:32;;;;;;;16.33;12.73;;;18.70;99.60;;;;;;5034221;28;20017;-62
2021/08/13 06:34:58;;;;;;;15.00;10.73;;;18.70;99.60;;;;;;5031527;28;20492;-60
2021/08/13 06:37:23;;;;;;;13.00;10.65;;;18.70;99.50;;;;;;5033798;28;20037;-60
2021/08/13 06:39:49;;;;;;;13.95;10.55;;;18.80;99.40;;;;;;5032242;28;20037;-60
2021/08/13 06:42:14;;;;;;;14.02;11.45;;;18.80;99.40;;;;;;5033003;28;20132;-60
2021/08/13 06:44:40;;;;;;;13.82;11.10;;;18.90;99.60;;;;;;5033926;28;20025;-60
2021/08/13 06:47:05;;;;;;;13.38;9.38;;;18.90;99.20;;;;;;5032666;28;20033;-60
2021/08/13 06:49:31;;;;;;;12.25;9.15;;;18.90;99.10;;;;;;5033292;28;20109;-60
2021/08/13 06:51:56;;;;;;;10.68;8.98;;;18.90;99.00;;;;;;5033553;28;20082;-60
2021/08/13 06:54:22;;;;;;;11.20;8.80;;;19.00;98.90;;;;;;5033891;28;20487;-60
2021/08/13 06:56:47;;;;;;;13.43;10.40;;;19.00;98.80;;;;;;5033787;28;20517;-60
2021/08/13 06:59:18;;;;;;;12.25;9.23;;;19.10;98.70;;;;;;5033794;28;20029;-60
2021/08/13 07:01:43;;;;;;;12.48;9.30;;;19.10;98.70;;;;;;5033817;28;20036;-60
2021/08/13 07:04:09;;;;;;;10.98;8.35;;;19.10;98.60;;;;;;5033785;28;20385;-60
2021/08/13 07:06:35;;;;;;;10.18;8.60;;;19.20;98.50;;;;;;5032240;28;20022;-60
2021/08/13 07:09:00;;;;;;;12.70;9.52;;;19.30;98.40;;;;;;5033712;28;20466;-60
2021/08/13 07:11:26;;;;;;;15.13;9.02;;;19.30;98.30;;;;;;5033424;28;20079;-60
2021/08/13 07:13:51;;;;;;;11.23;8.13;;;19.30;98.20;;;;;;5033355;28;20022;-60
2021/08/13 07:16:19;;;;;;;11.63;8.80;;;19.30;98.10;;;;;;5033166;28;20029;-60
2021/08/13 07:18:44;;;;;;;11.38;7.95;;;19.40;98.00;;;;;;5033242;28;20051;-60
2021/08/13 07:21:10;;;;;;;11.85;9.20;;;19.50;97.90;;;;;;5033182;28;20448;-60
2021/08/13 07:23:35;;;;;;;10.70;8.57;;;19.50;97.80;;;;;;5033386;28;20056;-60
2021/08/13 07:26:01;;;;;;;10.57;8.00;;;19.60;97.80;;;;;;5033247;28;20416;-60
2021/08/13 07:28:26;;;;;;;12.43;9.02;;;19.60;97.70;;;;;;5026032;28;20025;-60
2021/08/13 07:30:52;;;;;;;13.73;8.70;;;19.60;97.70;;;;;;5021066;28;20022;-61
2021/08/13 07:33:17;;;;;;;10.82;8.43;;;19.60;97.60;;;;;;5033822;28;20080;-61
2021/08/13 07:35:45;;;;;;;12.20;8.38;;;19.60;97.50;;;;;;5033488;28;20109;-61
2021/08/13 07:38:11;;;;;;;9.68;7.90;;;19.70;97.40;;;;;;5046787;28;20067;-61
2021/08/13 07:40:37;;;;;;;13.50;8.20;;;19.70;97.30;;;;;;5043341;28;20076;-61
2021/08/13 07:43:03;;;;;;;12.65;8.43;;;19.70;97.20;;;;;;5030968;28;20043;-61
2021/08/13 07:45:29;;;;;;;12.02;8.77;;;19.70;97.20;;;;;;5032796;28;20539;-61
2021/08/13 07:47:54;;;;;;;12.82;9.18;;;19.70;97.20;;;;;;5036529;28;20037;-61
2021/08/13 07:50:20;;;;;;;10.10;7.30;;;19.70;97.20;;;;;;5038510;28;20392;-61
2021/08/13 07:52:46;;;;;;;11.32;8.77;;;19.70;97.30;;;;;;5047140;28;20017;-61
2021/08/13 07:55:11;;;;;;;10.00;7.72;;;19.80;97.30;;;;;;5042018;28;20112;-61
2021/08/13 07:57:37;;;;;;;9.05;7.32;;;19.90;97.20;;;;;;5037954;28;20385;-60
2021/08/13 08:00:04;;;;;;;10.88;7.45;;;20.00;97.10;;;;;;5031887;28;20479;-61
2021/08/13 08:02:40;;;;;;;9.43;7.88;;;20.00;97.00;;;;;;5038707;28;20021;-61
2021/08/13 08:05:06;;;;;;;10.35;7.07;;;20.00;96.70;;;;;;5038303;28;20112;-61
2021/08/13 08:07:31;;;;;;;10.98;7.80;;;20.00;96.50;;;;;;5031543;28;20512;-61
2021/08/13 08:09:57;;;;;;;10.23;7.07;;;20.00;96.40;;;;;;5033539;28;20029;-61
2021/08/13 08:12:22;;;;;;;10.57;7.65;;;20.00;96.30;;;;;;5031333;28;20030;-61
2021/08/13 08:14:48;;;;;;;9.25;6.30;;;20.10;96.20;;;;;;5038598;28;20131;-61
2021/08/13 08:17:14;;;;;;;10.85;7.38;;;20.10;96.20;;;;;;5037816;28;20040;-61
2021/08/13 08:19:40;;;;;;;11.15;8.70;;;20.20;96.10;;;;;;5036700;28;20025;-60
2021/08/13 08:22:05;;;;;;;8.32;6.57;;;20.30;96.00;;;;;;5034346;28;20362;-60
2021/08/13 08:24:31;;;;;;;10.48;7.68;;;20.30;95.80;;;;;;5033712;28;20396;-60
2021/08/13 08:26:56;;;;;;;14.13;8.38;;;20.40;95.80;;;;;;5034573;28;20021;-60
2021/08/13 08:29:23;;;;;;;9.40;6.80;;;20.40;95.70;;;;;;5035971;28;20029;-61
2021/08/13 08:31:48;;;;;;;8.65;5.55;;;20.60;95.70;;;;;;5040189;28;20029;-60
2021/08/13 08:34:22;;;;;;;10.98;7.70;;;20.60;95.50;;;;;;5025384;28;20419;-60
2021/08/13 08:36:47;;;;;;;9.00;7.07;;;20.70;95.20;;;;;;5052691;28;20031;-60
2021/08/13 08:39:13;;;;;;;8.70;6.28;;;20.70;95.10;;;;;;5044584;28;20377;-61
2021/08/13 08:41:38;;;;;;;8.43;6.13;;;20.80;95.10;;;;;;5042108;28;20487;-61
2021/08/13 08:44:04;;;;;;;6.35;5.25;;;21.00;95.00;;;;;;5037951;28;20053;-61
2021/08/13 08:46:32;;;;;;;6.97;6.22;;;21.10;94.80;;;;;;5042066;28;20515;-61
2021/08/13 08:48:58;;;;;;;9.35;5.80;;;21.20;94.60;;;;;;5050311;28;20430;-60
2021/08/13 08:51:25;;;;;;;9.18;6.03;;;21.30;94.50;;;;;;5037087;28;20079;-61
2021/08/13 08:53:54;;;;;;;11.05;6.43;;;21.40;94.30;;;;;;5019187;28;20124;-61
2021/08/13 08:56:22;;;;;;;11.10;7.30;;;21.40;94.10;;;;;;5035807;28;20067;-60
2021/08/13 08:58:48;;;;;;;7.87;5.17;;;21.40;93.60;;;;;;5036541;28;20018;-61
2021/08/13 09:01:17;;;;;;;10.27;6.50;;;21.40;93.60;;;;;;5035535;28;20048;-61
2021/08/13 09:03:46;;;;;;;9.05;6.22;;;21.40;93.40;;;;;;5034767;28;20025;-61
2021/08/13 09:06:12;;;;;;;9.73;6.32;;;21.50;93.20;;;;;;5037919;28;20033;-61
2021/08/13 09:08:37;;;;;;;8.27;6.13;;;21.60;93.10;;;;;;5036072;28;20451;-60
2021/08/13 09:11:04;;;;;;;8.95;5.85;;;21.60;92.80;;;;;;5036883;28;20089;-61
2021/08/13 09:13:30;;;;;;;11.77;6.90;;;21.60;92.50;;;;;;5037500;28;20100;-61
2021/08/13 09:16:07;;;;;;;8.95;6.50;;;21.70;92.30;;;;;;5035156;28;20116;-61
2021/08/13 09:18:33;;;;;;;10.07;6.90;;;21.70;92.10;;;;;;5028696;28;20472;-60
2021/08/13 09:21:00;;;;;;;9.82;6.47;;;21.90;91.70;;;;;;5045331;28;20039;-61
2021/08/13 09:24:01;;;;;;;12.60;6.22;;;22.00;91.60;;;;;;5035232;28;20459;-61
2021/08/13 09:26:38;;;;;;;8.77;5.95;;;22.20;91.30;;;;;;5030874;28;20325;-61
2021/08/13 09:29:03;;;;;;;9.68;6.15;;;22.30;90.80;;;;;;5031845;28;20055;-60
2021/08/13 09:31:34;;;;;;;8.75;5.72;;;22.40;90.70;;;;;;5036647;28;20029;-60
2021/08/13 09:34:14;;;;;;;7.60;5.32;;;22.50;90.60;;;;;;5044605;28;20079;-61
2021/08/13 09:36:51;;;;;;;7.80;5.47;;;22.60;90.40;;;;;;5030198;28;20023;-61
2021/08/13 09:39:24;;;;;;;8.63;6.88;;;22.60;90.20;;;;;;5027730;28;20465;-60
2021/08/13 09:41:52;;;;;;;6.95;5.18;;;22.80;90.20;;;;;;5032640;28;20089;-61
2021/08/13 09:44:28;;;;;;;8.32;6.50;;;22.90;90.10;;;;;;5050846;28;20061;-61
2021/08/13 09:46:56;;;;;;;10.45;6.05;;;23.00;87.80;;;;;;5042448;28;20108;-61
2021/08/13 09:49:22;;;;;;;7.07;5.30;;;23.10;87.40;;;;;;5042705;28;20029;-61
2021/08/13 09:51:48;;;;;;;6.65;4.97;;;23.10;87.20;;;;;;5047326;28;20032;-61
2021/08/13 09:54:13;;;;;;;5.93;4.40;;;23.10;86.60;;;;;;5051132;28;20033;-60
2021/08/13 09:56:40;;;;;;;7.60;5.00;;;23.10;86.70;;;;;;5037401;28;20025;-61
2021/08/13 09:59:19;;;;;;;7.45;4.85;;;23.20;86.80;;;;;;5042721;28;20048;-60
2021/08/13 10:01:47;;;;;;;6.70;4.35;;;23.40;86.80;;;;;;5039042;28;20037;-60
2021/08/13 10:04:14;;;;;;;7.95;5.65;;;23.50;86.30;;;;;;5042209;28;20397;-61
2021/08/13 10:06:41;;;;;;;13.82;4.75;;;23.50;85.30;;;;;;5033562;28;20381;-61
2021/08/13 10:09:24;;;;;;;8.07;4.68;;;23.50;85.30;;;;;;5044209;28;20021;-61
2021/08/13 10:12:05;;;;;;;8.13;5.18;;;23.60;83.40;;;;;;5044291;28;20107;-61
2021/08/13 10:14:43;;;;;;;7.15;4.30;;;23.70;82.00;;;;;;5024159;28;20020;-60
2021/08/13 10:17:18;;;;;;;6.85;4.82;;;23.80;82.00;;;;;;5042616;28;20037;-61
2021/08/13 10:19:46;;;;;;;6.72;4.50;;;23.90;80.30;;;;;;5049153;28;20029;-61
2021/08/13 10:22:19;;;;;;;7.53;4.28;;;23.90;78.30;;;;;;5036465;28;20063;-61
2021/08/13 10:24:46;;;;;;;6.22;4.45;;;23.90;77.00;;;;;;5047551;28;20087;-61
2021/08/13 10:27:14;;;;;;;6.85;3.95;;;24.00;75.50;;;;;;5044112;28;20384;-61
2021/08/13 10:29:45;;;;;;;7.35;4.82;;;24.00;73.60;;;;;;5039983;28;20022;-61
2021/08/13 10:32:12;;;;;;;9.00;4.65;;;24.00;72.40;;;;;;5037262;28;20053;-61
2021/08/13 10:34:38;;;;;;;6.03;4.00;;;24.00;71.50;;;;;;5044599;28;20040;-61
2021/08/13 10:37:11;;;;;;;6.80;4.20;;;24.00;71.80;;;;;;5043947;28;20028;-61
2021/08/13 10:39:39;;;;;;;7.97;4.60;;;24.10;71.90;;;;;;5047556;28;20032;-61
2021/08/13 10:42:05;;;;;;;8.60;4.72;;;24.20;72.00;;;;;;5036968;28;20140;-61
2021/08/13 10:44:36;;;;;;;8.10;4.63;;;24.30;71.50;;;;;;5040529;28;20048;-61
2021/08/13 10:47:10;;;;;;;8.13;4.15;;;24.50;70.00;;;;;;5033505;28;20037;-61
2021/08/13 10:49:39;;;;;;;9.55;4.85;;;24.60;68.60;;;;;;5032288;28;20076;-61
2021/08/13 10:52:06;;;;;;;7.05;4.63;;;24.70;67.90;;;;;;5029775;28;20033;-61
2021/08/13 10:54:46;;;;;;;8.55;5.07;;;24.80;67.60;;;;;;5031428;28;20450;-61
2021/08/13 10:57:13;;;;;;;6.95;4.13;;;24.80;66.40;;;;;;5032349;28;20030;-61
2021/08/13 10:59:41;;;;;;;8.07;3.92;;;24.90;67.40;;;;;;5031974;28;20025;-61
2021/08/13 11:02:11;;;;;;;9.53;4.50;;;25.10;67.90;;;;;;5032217;28;20025;-61
2021/08/13 11:04:43;;;;;;;11.15;5.07;;;25.30;68.00;;;;;;5032970;28;20112;-61
2021/08/13 11:07:10;;;;;;;8.75;4.85;;;25.40;67.50;;;;;;5032554;28;20033;-61
2021/08/13 11:09:36;;;;;;;8.25;4.47;;;25.30;67.60;;;;;;5032686;28;20033;-61
2021/08/13 11:12:06;;;;;;;5.93;3.47;;;25.40;67.70;;;;;;5033404;28;20032;-61
2021/08/13 11:14:34;;;;;;;4.47;3.30;;;25.60;68.00;;;;;;5013557;28;20458;-61
2021/08/13 11:17:01;;;;;;;10.40;3.35;;;25.80;67.90;;;;;;5030189;28;20444;-61
2021/08/13 11:19:27;;;;;;;6.95;3.90;;;26.00;67.90;;;;;;5038494;28;20029;-61
2021/08/13 11:21:59;;;;;;;5.78;2.95;;;26.20;66.70;;;;;;5031703;28;20026;-61
2021/08/13 11:24:45;;;;;;;5.53;3.50;;;26.20;66.00;;;;;;5042871;28;20041;-61
2021/08/13 11:27:11;;;;;;;5.65;2.85;;;26.30;64.30;;;;;;5030653;28;20034;-60
2021/08/13 11:29:39;;;;;;;9.13;3.20;;;26.40;64.40;;;;;;5033681;28;20477;-60
2021/08/13 11:32:09;;;;;;;5.95;2.97;;;26.50;64.00;;;;;;5032796;28;20110;-61
2021/08/13 11:34:43;;;;;;;4.97;2.70;;;26.60;63.90;;;;;;5032720;28;20025;-61
2021/08/13 11:37:35;;;;;;;6.05;3.15;;;26.70;64.20;;;;;;5032780;28;20037;-61
2021/08/13 11:40:27;;;;;;;5.63;2.70;;;26.80;64.50;;;;;;5031758;28;20030;-61
2021/08/13 11:42:59;;;;;;;7.80;3.53;;;26.90;64.20;;;;;;5030702;28;20033;-60
2021/08/13 11:45:38;;;;;;;5.25;2.45;;;27.10;64.40;;;;;;5033493;28;20029;-61
2021/08/13 11:48:05;;;;;;;3.58;2.00;;;27.30;63.70;;;;;;5032230;28;20022;-61
2021/08/13 11:50:31;;;;;;;3.47;1.85;;;27.40;62.20;;;;;;5032486;28;20091;-61
2021/08/13 11:52:57;;;;;;;3.95;1.45;;;27.40;60.10;;;;;;5030403;28;20018;-61
2021/08/13 11:55:27;;;;;;;3.67;1.40;;;27.60;58.20;;;;;;5034799;28;20075;-60
2021/08/13 11:57:57;;;;;;;2.45;1.38;;;27.70;57.10;;;;;;5046385;28;20017;-61
2021/08/13 12:00:24;;;;;;;5.97;1.50;;;27.80;57.70;;;;;;5033241;28;20036;-61
2021/08/13 12:02:58;;;;;;;3.03;1.48;;;27.80;57.80;;;;;;5031759;28;20021;-61
2021/08/13 12:05:30;;;;;;;4.50;1.92;;;27.90;57.90;;;;;;5032177;28;20052;-61
2021/08/13 12:07:58;;;;;;;4.78;1.52;;;27.80;57.90;;;;;;5038276;28;20013;-61
2021/08/13 12:10:24;;;;;;;3.03;1.70;;;27.80;58.20;;;;;;5042294;28;20384;-61
2021/08/13 12:12:50;;;;;;;3.47;1.42;;;27.70;57.90;;;;;;5038820;28;20517;-60
2021/08/13 12:15:29;;;;;;;6.13;2.20;;;27.80;57.80;;;;;;5045741;28;20060;-61
2021/08/13 12:17:55;;;;;;;8.25;2.63;;;28.00;57.90;;;;;;5037082;28;20068;-61
2021/08/13 12:20:21;;;;;;;3.88;1.63;;;28.10;58.00;;;;;;5042653;28;20029;-61
2021/08/13 12:22:46;;;;;;;4.78;1.67;;;28.10;58.00;;;;;;5044821;28;20502;-61
2021/08/13 12:25:15;;;;;;;4.13;1.80;;;28.20;58.20;;;;;;5036060;28;20481;-61
2021/08/13 12:27:44;;;;;;;5.32;1.45;;;28.40;58.00;;;;;;5025172;28;20033;-61
2021/08/13 12:30:22;;;;;;;3.78;1.85;;;28.50;57.60;;;;;;5042773;28;20076;-61
2021/08/13 12:32:50;;;;;;;4.38;1.40;;;28.60;57.50;;;;;;5045055;28;20029;-61
2021/08/13 12:35:15;;;;;;;3.67;1.33;;;28.60;54.80;;;;;;5033765;28;20057;-61
2021/08/13 12:37:42;;;;;;;3.17;1.08;;;28.60;52.40;;;;;;5048037;28;20068;-61
2021/08/13 12:40:10;;;;;;;3.60;1.30;;;28.60;50.20;;;;;;5038925;28;20109;-60
2021/08/13 12:42:38;;;;;;;3.10;1.10;;;28.50;50.80;;;;;;5039486;28;20025;-61
2021/08/13 12:45:08;;;;;;;4.63;1.10;;;28.50;50.60;;;;;;5047111;28;20036;-61
2021/08/13 12:47:34;;;;;;;2.35;1.10;;;28.50;51.20;;;;;;5035520;28;20132;-61
2021/08/13 12:50:20;;;;;;;2.53;1.27;;;28.50;51.20;;;;;;5042698;28;20045;-61